Flight Track Log - Related Links

Times and Time Zones

All times are in EDT time to prevent confusion due to time zone crossing. See the PDT4170 flight status page for this flight to view local times or setup timezone preferences in your user account.

Time Position Orientation Groundspeed Altitude Reporting Facility
EDT Latitude Longitude Course Direction KTS MPH feet Rate Location/Type
Sat 04:37:18 PM 36.4272 -82.4311 158° South 135 155 3,100  Level Atlanta Center
Sat 04:38:00 PM 36.3656 -82.2780 99° East  Level Estimated
Sat 04:38:18 PM 36.3875 -82.4192 166° South 147 169 4,300  Level Atlanta Center
Sat 04:39:00 PM 36.3290 -82.2349 90° East  Level Estimated
Sat 04:39:18 PM 36.3578 -82.3861 138° Southeast 147 169 5,700  Level Atlanta Center
Sat 04:40:00 PM 36.2924 -82.1919 158° South  Level Estimated
Sat 04:40:18 PM 36.3283 -82.3508 136° Southeast 157 181 6,800  Level Atlanta Center
Sat 04:41:00 PM 36.3250 -82.1442 50° Northeast  Level FlightAware Approximate
Sat 04:41:18 PM 36.2944 -82.3128 138° Southeast 157 181 8,000  Level Atlanta Center
Sat 04:42:00 PM 36.2873 -82.1028 158° South  Level Estimated
Sat 04:42:18 PM 36.2625 -82.2722 134° Southeast 157 181 9,000  Level Atlanta Center
Sat 04:43:18 PM 36.2286 -82.2319 136° Southeast 169 194 10,100 850 Climbing Atlanta Center
Sat 04:44:18 PM 36.1989 -82.1964 136° Southeast 169 194 10,700 450 Climbing Atlanta Center
Sat 04:45:18 PM 36.1606 -82.1486 135° Southeast 177 204 11,000 150 Climbing Atlanta Center
Sat 04:46:18 PM 36.1078 -82.1061 147° Southeast 210 242 11,000  Level Atlanta Center
Sat 04:47:18 PM 36.0589 -82.0533 139° Southeast 228 262 11,000 -150 Level Atlanta Center
Sat 04:48:18 PM 36.0058 -81.9981 140° Southeast 239 275 10,700 -350 Descending Atlanta Center
Sat 04:49:18 PM 35.9467 -81.9483 146° Southeast 250 288 10,300 -400 Descending Atlanta Center
Sat 04:50:18 PM 35.8856 -81.9089 152° Southeast 255 293 9,900 -400 Descending Atlanta Center
Sat 04:51:18 PM 35.8225 -81.8822 161° South 248 285 9,500 -450 Descending Atlanta Center
Sat 04:52:18 PM 35.7756 -81.8247 135° Southeast 238 274 9,000 -300 Descending Atlanta Center
Sat 04:53:18 PM 35.7283 -81.7594 132° Southeast 247 284 8,900 -59 Descending Atlanta Center
Sat 04:54:00 PM 35.6900 -81.7094 133° Southeast 249 287 8,900 62 Level Atlanta Center
Sat 04:54:55 PM 35.6533 -81.6567 131° Southeast 244 281 9,000 55 Climbing Atlanta Center
Sat 04:55:49 PM 35.6125 -81.5967 130° Southeast 245 282 9,000 -52 Level Atlanta Center
Sat 04:56:50 PM 35.5675 -81.5317 130° Southeast 248 285 8,900 -295 Descending Atlanta Center
Sat 04:57:51 PM 35.5219 -81.4539 126° Southeast 261 300 8,400 -541 Descending Atlanta Center
Sat 04:58:52 PM 35.4789 -81.3814 126° Southeast 270 311 7,800 -563 Descending Atlanta Center
Sat 04:59:59 PM 35.4456 -81.2906 114° Southeast 274 315 7,200 -493 Descending Atlanta Center
Sat 05:01:06 PM 35.4306 -81.1892 100° East 269 310 6,700 -496 Descending Atlanta Center
Sat 05:02:12 PM 35.4203 -81.0978 98° East 249 287 6,100 -850 Descending Atlanta Center
Sat 05:03:13 PM 35.4267 -81.0236 84° East 205 236 4,900 -1,138 Descending Atlanta Center
Sat 05:04:08 PM 35.3861 -80.9844 142° Southeast 197 227 3,900 -1,131 Descending Atlanta Center
Sat 05:05:15 PM 35.3275 -80.9789 176° South 181 208 2,600 -984 Descending Atlanta Center
Sat 05:06:16 PM 35.2817 -80.9781 179° South 166 191 1,800 -738 Descending Atlanta Center
Sat 05:07:17 PM 35.2461 -80.9717 172° South 118 136 1,100 -689 Descending Atlanta Center

Login

Don't have an account? Register now (free) for customized features, flight alerts, and more!